sensor_id;sensor_type;location;lat;lon;timestamp;P1;durP1;ratioP1;P2;durP2;ratioP2
21624;SDS011;10974;51.034;3.744;2022-10-16T04:03:13;2.87;;;1.73;;
21624;SDS011;10974;51.034;3.744;2022-10-16T04:05:39;5.77;;;2.10;;
21624;SDS011;10974;51.034;3.744;2022-10-16T04:08:05;4.57;;;1.70;;
21624;SDS011;10974;51.034;3.744;2022-10-16T04:10:31;6.47;;;1.90;;
21624;SDS011;10974;51.034;3.744;2022-10-16T04:12:56;2.43;;;1.60;;
21624;SDS011;10974;51.034;3.744;2022-10-16T04:15:23;2.63;;;1.77;;
21624;SDS011;10974;51.034;3.744;2022-10-16T04:17:49;3.53;;;1.77;;
21624;SDS011;10974;51.034;3.744;2022-10-16T04:20:15;2.90;;;1.70;;
21624;SDS011;10974;51.034;3.744;2022-10-16T04:22:41;2.90;;;1.87;;
21624;SDS011;10974;51.034;3.744;2022-10-16T04:25:07;1.63;;;1.40;;
21624;SDS011;10974;51.034;3.744;2022-10-16T04:27:33;5.37;;;1.87;;
21624;SDS011;10974;51.034;3.744;2022-10-16T04:29:59;2.30;;;1.70;;
21624;SDS011;10974;51.034;3.744;2022-10-16T04:32:25;2.57;;;1.80;;
21624;SDS011;10974;51.034;3.744;2022-10-16T04:34:52;3.60;;;1.77;;
21624;SDS011;10974;51.034;3.744;2022-10-16T04:37:18;4.63;;;1.90;;
21624;SDS011;10974;51.034;3.744;2022-10-16T04:39:43;2.73;;;1.60;;
21624;SDS011;10974;51.034;3.744;2022-10-16T04:42:10;3.27;;;1.63;;
21624;SDS011;10974;51.034;3.744;2022-10-16T04:44:36;2.17;;;1.47;;
21624;SDS011;10974;51.034;3.744;2022-10-16T04:47:01;4.53;;;1.77;;
21624;SDS011;10974;51.034;3.744;2022-10-16T04:49:27;3.10;;;2.13;;
21624;SDS011;10974;51.034;3.744;2022-10-16T04:51:53;3.73;;;1.70;;
21624;SDS011;10974;51.034;3.744;2022-10-16T04:54:19;2.20;;;1.70;;
21624;SDS011;10974;51.034;3.744;2022-10-16T04:56:44;4.80;;;1.73;;
21624;SDS011;10974;51.034;3.744;2022-10-16T04:59:15;2.33;;;1.60;;
21624;SDS011;10974;51.034;3.744;2022-10-16T05:01:41;4.47;;;2.00;;
21624;SDS011;10974;51.034;3.744;2022-10-16T05:04:06;1.70;;;1.60;;
21624;SDS011;10974;51.034;3.744;2022-10-16T05:06:32;2.53;;;1.80;;
21624;SDS011;10974;51.034;3.744;2022-10-16T05:08:58;7.40;;;2.10;;
21624;SDS011;10974;51.034;3.744;2022-10-16T05:11:24;4.20;;;1.83;;
21624;SDS011;10974;51.034;3.744;2022-10-16T05:13:49;3.07;;;1.83;;
21624;SDS011;10974;51.034;3.744;2022-10-16T05:16:15;2.13;;;1.70;;
21624;SDS011;10974;51.034;3.744;2022-10-16T05:18:41;2.30;;;1.80;;
21624;SDS011;10974;51.034;3.744;2022-10-16T05:21:06;2.27;;;1.90;;
21624;SDS011;10974;51.034;3.744;2022-10-16T05:23:32;2.27;;;1.53;;
21624;SDS011;10974;51.034;3.744;2022-10-16T05:25:58;3.10;;;1.70;;
21624;SDS011;10974;51.034;3.744;2022-10-16T05:28:28;2.03;;;1.80;;
21624;SDS011;10974;51.034;3.744;2022-10-16T05:30:55;3.03;;;1.70;;
21624;SDS011;10974;51.034;3.744;2022-10-16T05:33:22;2.67;;;1.57;;
21624;SDS011;10974;51.034;3.744;2022-10-16T05:35:49;1.83;;;1.70;;
21624;SDS011;10974;51.034;3.744;2022-10-16T05:38:18;3.03;;;1.40;;
21624;SDS011;10974;51.034;3.744;2022-10-16T05:40:50;2.73;;;1.83;;
21624;SDS011;10974;51.034;3.744;2022-10-16T05:43:17;2.80;;;1.80;;
21624;SDS011;10974;51.034;3.744;2022-10-16T05:45:43;4.60;;;2.00;;
21624;SDS011;10974;51.034;3.744;2022-10-16T05:48:09;6.40;;;2.00;;
21624;SDS011;10974;51.034;3.744;2022-10-16T05:50:34;3.10;;;1.67;;
21624;SDS011;10974;51.034;3.744;2022-10-16T05:53:00;6.07;;;1.90;;
21624;SDS011;10974;51.034;3.744;2022-10-16T05:55:26;3.83;;;1.87;;
21624;SDS011;10974;51.034;3.744;2022-10-16T05:57:53;2.03;;;1.50;;
21624;SDS011;10974;51.034;3.744;2022-10-16T06:00:19;2.90;;;1.10;;
21624;SDS011;10974;51.034;3.744;2022-10-16T06:02:45;1.53;;;1.13;;
21624;SDS011;10974;51.034;3.744;2022-10-16T06:05:11;1.90;;;1.00;;
21624;SDS011;10974;51.034;3.744;2022-10-16T06:07:36;1.03;;;0.90;;
21624;SDS011;10974;51.034;3.744;2022-10-16T06:10:02;1.23;;;1.10;;
21624;SDS011;10974;51.034;3.744;2022-10-16T06:12:29;2.00;;;1.60;;
21624;SDS011;10974;51.034;3.744;2022-10-16T06:14:55;2.37;;;1.27;;
21624;SDS011;10974;51.034;3.744;2022-10-16T06:17:20;1.93;;;1.20;;
21624;SDS011;10974;51.034;3.744;2022-10-16T06:19:46;1.50;;;1.40;;
21624;SDS011;10974;51.034;3.744;2022-10-16T06:22:12;1.10;;;1.00;;
21624;SDS011;10974;51.034;3.744;2022-10-16T06:24:37;1.17;;;1.07;;
21624;SDS011;10974;51.034;3.744;2022-10-16T06:27:03;1.53;;;0.90;;
21624;SDS011;10974;51.034;3.744;2022-10-16T06:29:29;1.60;;;1.13;;
21624;SDS011;10974;51.034;3.744;2022-10-16T06:31:55;1.83;;;1.03;;
21624;SDS011;10974;51.034;3.744;2022-10-16T06:34:21;2.13;;;1.40;;
21624;SDS011;10974;51.034;3.744;2022-10-16T06:36:46;3.37;;;1.33;;
21624;SDS011;10974;51.034;3.744;2022-10-16T06:39:12;1.93;;;1.07;;
21624;SDS011;10974;51.034;3.744;2022-10-16T06:41:37;2.50;;;1.30;;
21624;SDS011;10974;51.034;3.744;2022-10-16T06:44:06;1.27;;;1.20;;
21624;SDS011;10974;51.034;3.744;2022-10-16T06:46:33;1.30;;;1.20;;
21624;SDS011;10974;51.034;3.744;2022-10-16T06:48:59;1.67;;;1.10;;
21624;SDS011;10974;51.034;3.744;2022-10-16T06:51:25;1.77;;;1.23;;
21624;SDS011;10974;51.034;3.744;2022-10-16T06:53:52;1.10;;;1.00;;
21624;SDS011;10974;51.034;3.744;2022-10-16T06:58:45;1.73;;;1.00;;
21624;SDS011;10974;51.034;3.744;2022-10-16T07:01:12;1.20;;;1.10;;
21624;SDS011;10974;51.034;3.744;2022-10-16T07:03:40;2.90;;;1.43;;
21624;SDS011;10974;51.034;3.744;2022-10-16T07:06:08;2.07;;;1.20;;
21624;SDS011;10974;51.034;3.744;2022-10-16T07:08:36;3.63;;;1.30;;
21624;SDS011;10974;51.034;3.744;2022-10-16T07:11:04;1.40;;;1.30;;
21624;SDS011;10974;51.034;3.744;2022-10-16T07:13:33;1.40;;;1.23;;
21624;SDS011;10974;51.034;3.744;2022-10-16T07:16:19;1.87;;;1.60;;
21624;SDS011;10974;51.034;3.744;2022-10-16T07:18:46;3.80;;;1.43;;
21624;SDS011;10974;51.034;3.744;2022-10-16T07:21:14;3.07;;;1.40;;
21624;SDS011;10974;51.034;3.744;2022-10-16T07:23:41;1.73;;;1.27;;
21624;SDS011;10974;51.034;3.744;2022-10-16T07:26:07;1.93;;;1.20;;
21624;SDS011;10974;51.034;3.744;2022-10-16T07:28:34;3.50;;;1.30;;
21624;SDS011;10974;51.034;3.744;2022-10-16T07:31:04;5.40;;;1.23;;
21624;SDS011;10974;51.034;3.744;2022-10-16T07:33:32;1.43;;;1.17;;
21624;SDS011;10974;51.034;3.744;2022-10-16T07:35:59;1.83;;;1.20;;
21624;SDS011;10974;51.034;3.744;2022-10-16T07:38:25;3.40;;;1.50;;
21624;SDS011;10974;51.034;3.744;2022-10-16T07:40:57;2.63;;;1.23;;
21624;SDS011;10974;51.034;3.744;2022-10-16T07:43:30;3.67;;;1.40;;
21624;SDS011;10974;51.034;3.744;2022-10-16T07:45:56;1.30;;;1.20;;
21624;SDS011;10974;51.034;3.744;2022-10-16T07:48:22;2.57;;;1.77;;
21624;SDS011;10974;51.034;3.744;2022-10-16T07:50:49;3.03;;;1.60;;
21624;SDS011;10974;51.034;3.744;2022-10-16T07:53:15;3.93;;;1.60;;
21624;SDS011;10974;51.034;3.744;2022-10-16T07:55:41;1.33;;;1.23;;
21624;SDS011;10974;51.034;3.744;2022-10-16T07:58:07;4.57;;;1.67;;
21624;SDS011;10974;51.034;3.744;2022-10-16T08:00:33;34.07;;;2.07;;
21624;SDS011;10974;51.034;3.744;2022-10-16T08:03:00;2.40;;;1.40;;
21624;SDS011;10974;51.034;3.744;2022-10-16T08:05:26;2.30;;;1.27;;
21624;SDS011;10974;51.034;3.744;2022-10-16T08:07:53;2.53;;;1.40;;
21624;SDS011;10974;51.034;3.744;2022-10-16T08:10:20;39.70;;;2.17;;
21624;SDS011;10974;51.034;3.744;2022-10-16T08:12:46;42.50;;;1.87;;
21624;SDS011;10974;51.034;3.744;2022-10-16T08:15:12;5.67;;;1.60;;
21624;SDS011;10974;51.034;3.744;2022-10-16T08:17:38;2.83;;;1.30;;
21624;SDS011;10974;51.034;3.744;2022-10-16T08:20:04;3.90;;;1.27;;
21624;SDS011;10974;51.034;3.744;2022-10-16T08:22:30;39.17;;;2.10;;
21624;SDS011;10974;51.034;3.744;2022-10-16T08:24:56;44.67;;;2.00;;
21624;SDS011;10974;51.034;3.744;2022-10-16T08:27:22;1.67;;;1.20;;
21624;SDS011;10974;51.034;3.744;2022-10-16T08:29:50;3.50;;;1.47;;
21624;SDS011;10974;51.034;3.744;2022-10-16T08:32:16;49.10;;;2.13;;
21624;SDS011;10974;51.034;3.744;2022-10-16T08:34:42;3.63;;;1.40;;
21624;SDS011;10974;51.034;3.744;2022-10-16T08:37:08;4.50;;;1.70;;
21624;SDS011;10974;51.034;3.744;2022-10-16T08:39:36;4.70;;;1.40;;
21624;SDS011;10974;51.034;3.744;2022-10-16T08:42:15;43.50;;;2.40;;
21624;SDS011;10974;51.034;3.744;2022-10-16T08:45:06;37.50;;;1.90;;
21624;SDS011;10974;51.034;3.744;2022-10-16T08:50:30;5.00;;;1.43;;
21624;SDS011;10974;51.034;3.744;2022-10-16T08:52:57;38.37;;;2.27;;
21624;SDS011;10974;51.034;3.744;2022-10-16T08:58:13;3.97;;;1.27;;
21624;SDS011;10974;51.034;3.744;2022-10-16T09:00:56;43.47;;;2.37;;
21624;SDS011;10974;51.034;3.744;2022-10-16T09:03:30;42.03;;;2.50;;
21624;SDS011;10974;51.034;3.744;2022-10-16T09:06:25;8.73;;;2.90;;
21624;SDS011;10974;51.034;3.744;2022-10-16T09:12:26;2.13;;;1.33;;
21624;SDS011;10974;51.034;3.744;2022-10-16T09:16:53;2.70;;;1.40;;
21624;SDS011;10974;51.034;3.744;2022-10-16T09:19:34;42.37;;;2.10;;
21624;SDS011;10974;51.034;3.744;2022-10-16T09:22:10;40.80;;;2.60;;
21624;SDS011;10974;51.034;3.744;2022-10-16T09:24:40;6.30;;;2.10;;
21624;SDS011;10974;51.034;3.744;2022-10-16T09:27:12;7.50;;;2.07;;
21624;SDS011;10974;51.034;3.744;2022-10-16T09:29:39;8.43;;;1.70;;
21624;SDS011;10974;51.034;3.744;2022-10-16T09:32:19;4.83;;;1.50;;
21624;SDS011;10974;51.034;3.744;2022-10-16T09:34:47;8.43;;;1.80;;
21624;SDS011;10974;51.034;3.744;2022-10-16T09:37:18;41.07;;;2.00;;
21624;SDS011;10974;51.034;3.744;2022-10-16T09:39:49;7.70;;;1.70;;
21624;SDS011;10974;51.034;3.744;2022-10-16T09:42:34;39.37;;;2.00;;
21624;SDS011;10974;51.034;3.744;2022-10-16T09:45:02;44.97;;;2.60;;
21624;SDS011;10974;51.034;3.744;2022-10-16T09:47:29;8.50;;;1.90;;
21624;SDS011;10974;51.034;3.744;2022-10-16T09:49:57;47.60;;;2.03;;
21624;SDS011;10974;51.034;3.744;2022-10-16T09:52:26;7.40;;;2.07;;
21624;SDS011;10974;51.034;3.744;2022-10-16T09:54:59;6.43;;;1.80;;
21624;SDS011;10974;51.034;3.744;2022-10-16T09:57:27;7.57;;;1.83;;
21624;SDS011;10974;51.034;3.744;2022-10-16T09:59:53;7.97;;;2.27;;
21624;SDS011;10974;51.034;3.744;2022-10-16T10:02:31;10.00;;;2.27;;
21624;SDS011;10974;51.034;3.744;2022-10-16T10:05:00;6.50;;;2.10;;
21624;SDS011;10974;51.034;3.744;2022-10-16T10:07:33;9.90;;;2.47;;
21624;SDS011;10974;51.034;3.744;2022-10-16T10:10:04;15.80;;;3.17;;
21624;SDS011;10974;51.034;3.744;2022-10-16T10:12:31;11.93;;;2.63;;
21624;SDS011;10974;51.034;3.744;2022-10-16T10:17:33;6.70;;;2.37;;
21624;SDS011;10974;51.034;3.744;2022-10-16T10:20:00;11.27;;;2.70;;
21624;SDS011;10974;51.034;3.744;2022-10-16T10:22:42;16.63;;;2.83;;
21624;SDS011;10974;51.034;3.744;2022-10-16T10:30:15;6.27;;;2.40;;
21624;SDS011;10974;51.034;3.744;2022-10-16T10:38:20;7.20;;;2.27;;
21624;SDS011;10974;51.034;3.744;2022-10-16T10:42:02;4.33;;;1.73;;
21624;SDS011;10974;51.034;3.744;2022-10-16T10:46:56;11.87;;;2.70;;
21624;SDS011;10974;51.034;3.744;2022-10-16T10:52:29;4.57;;;1.67;;
21624;SDS011;10974;51.034;3.744;2022-10-16T10:55:16;7.73;;;2.23;;
21624;SDS011;10974;51.034;3.744;2022-10-16T11:06:16;8.03;;;2.53;;
21624;SDS011;10974;51.034;3.744;2022-10-16T11:11:20;7.53;;;2.40;;
21624;SDS011;10974;51.034;3.744;2022-10-16T11:13:58;7.37;;;2.23;;
21624;SDS011;10974;51.034;3.744;2022-10-16T11:16:36;8.47;;;2.03;;
21624;SDS011;10974;51.034;3.744;2022-10-16T11:22:50;7.33;;;2.20;;
21624;SDS011;10974;51.034;3.744;2022-10-16T11:25:25;6.83;;;2.10;;
21624;SDS011;10974;51.034;3.744;2022-10-16T11:30:41;8.57;;;2.30;;
21624;SDS011;10974;51.034;3.744;2022-10-16T11:33:32;10.20;;;2.27;;
21624;SDS011;10974;51.034;3.744;2022-10-16T11:36:18;7.67;;;2.37;;
21624;SDS011;10974;51.034;3.744;2022-10-16T11:46:43;5.10;;;2.27;;
21624;SDS011;10974;51.034;3.744;2022-10-16T11:49:16;6.03;;;2.20;;
21624;SDS011;10974;51.034;3.744;2022-10-16T11:57:15;8.80;;;2.20;;
21624;SDS011;10974;51.034;3.744;2022-10-16T11:59:49;7.73;;;1.57;;
21624;SDS011;10974;51.034;3.744;2022-10-16T12:02:31;2.90;;;1.50;;
21624;SDS011;10974;51.034;3.744;2022-10-16T12:08:12;4.77;;;1.90;;
21624;SDS011;10974;51.034;3.744;2022-10-16T12:10:42;5.03;;;1.63;;
21624;SDS011;10974;51.034;3.744;2022-10-16T12:18:38;3.90;;;1.57;;
21624;SDS011;10974;51.034;3.744;2022-10-16T12:21:05;4.80;;;1.87;;
21624;SDS011;10974;51.034;3.744;2022-10-16T12:23:46;7.70;;;1.97;;
21624;SDS011;10974;51.034;3.744;2022-10-16T12:26:26;3.57;;;1.50;;
21624;SDS011;10974;51.034;3.744;2022-10-16T12:31:47;6.67;;;2.00;;
21624;SDS011;10974;51.034;3.744;2022-10-16T12:34:21;7.30;;;1.70;;
21624;SDS011;10974;51.034;3.744;2022-10-16T12:36:52;4.47;;;1.93;;
21624;SDS011;10974;51.034;3.744;2022-10-16T12:39:23;4.80;;;1.80;;
21624;SDS011;10974;51.034;3.744;2022-10-16T12:42:03;10.73;;;1.50;;
21624;SDS011;10974;51.034;3.744;2022-10-16T12:44:34;3.60;;;1.40;;
21624;SDS011;10974;51.034;3.744;2022-10-16T12:47:00;3.00;;;1.57;;
21624;SDS011;10974;51.034;3.744;2022-10-16T12:49:36;3.93;;;1.50;;
21624;SDS011;10974;51.034;3.744;2022-10-16T12:52:03;6.77;;;2.20;;
21624;SDS011;10974;51.034;3.744;2022-10-16T13:05:19;4.50;;;1.80;;
21624;SDS011;10974;51.034;3.744;2022-10-16T13:16:19;4.40;;;1.77;;
21624;SDS011;10974;51.034;3.744;2022-10-16T13:21:56;3.53;;;1.73;;
21624;SDS011;10974;51.034;3.744;2022-10-16T13:27:35;5.27;;;1.70;;
21624;SDS011;10974;51.034;3.744;2022-10-16T13:30:16;7.80;;;2.07;;
21624;SDS011;10974;51.034;3.744;2022-10-16T13:33:02;4.80;;;1.93;;
21624;SDS011;10974;51.034;3.744;2022-10-16T13:35:36;3.10;;;1.30;;
21624;SDS011;10974;51.034;3.744;2022-10-16T13:40:49;3.67;;;1.70;;
21624;SDS011;10974;51.034;3.744;2022-10-16T13:43:42;2.70;;;1.30;;
21624;SDS011;10974;51.034;3.744;2022-10-16T13:46:17;4.70;;;1.53;;
21624;SDS011;10974;51.034;3.744;2022-10-16T13:48:43;2.57;;;1.30;;
21624;SDS011;10974;51.034;3.744;2022-10-16T13:51:17;2.93;;;1.40;;
21624;SDS011;10974;51.034;3.744;2022-10-16T13:53:44;3.20;;;1.67;;
21624;SDS011;10974;51.034;3.744;2022-10-16T13:56:14;2.67;;;1.40;;
21624;SDS011;10974;51.034;3.744;2022-10-16T13:58:42;2.97;;;1.40;;
21624;SDS011;10974;51.034;3.744;2022-10-16T14:01:18;4.23;;;1.80;;
21624;SDS011;10974;51.034;3.744;2022-10-16T14:03:53;3.93;;;1.60;;
21624;SDS011;10974;51.034;3.744;2022-10-16T14:06:28;2.40;;;1.60;;
21624;SDS011;10974;51.034;3.744;2022-10-16T14:08:58;4.20;;;1.97;;
21624;SDS011;10974;51.034;3.744;2022-10-16T14:11:31;2.37;;;1.33;;
21624;SDS011;10974;51.034;3.744;2022-10-16T14:13:57;3.27;;;2.30;;
21624;SDS011;10974;51.034;3.744;2022-10-16T14:16:25;3.23;;;1.90;;
21624;SDS011;10974;51.034;3.744;2022-10-16T14:21:27;4.43;;;1.63;;
21624;SDS011;10974;51.034;3.744;2022-10-16T14:23:54;1.40;;;1.30;;
21624;SDS011;10974;51.034;3.744;2022-10-16T14:26:22;3.33;;;1.40;;
21624;SDS011;10974;51.034;3.744;2022-10-16T14:29:00;3.93;;;1.50;;
21624;SDS011;10974;51.034;3.744;2022-10-16T14:31:35;3.90;;;1.50;;
21624;SDS011;10974;51.034;3.744;2022-10-16T14:34:02;2.50;;;1.27;;
21624;SDS011;10974;51.034;3.744;2022-10-16T14:36:28;2.50;;;1.50;;
21624;SDS011;10974;51.034;3.744;2022-10-16T14:41:29;3.57;;;1.43;;
21624;SDS011;10974;51.034;3.744;2022-10-16T14:43:57;5.33;;;1.60;;
21624;SDS011;10974;51.034;3.744;2022-10-16T14:46:29;1.53;;;1.20;;
21624;SDS011;10974;51.034;3.744;2022-10-16T14:49:03;1.40;;;1.30;;
21624;SDS011;10974;51.034;3.744;2022-10-16T14:51:35;3.53;;;1.40;;
21624;SDS011;10974;51.034;3.744;2022-10-16T14:54:02;2.20;;;1.60;;
21624;SDS011;10974;51.034;3.744;2022-10-16T14:56:34;2.97;;;1.90;;
21624;SDS011;10974;51.034;3.744;2022-10-16T14:59:16;1.60;;;1.30;;
21624;SDS011;10974;51.034;3.744;2022-10-16T15:02:12;3.87;;;1.40;;
21624;SDS011;10974;51.034;3.744;2022-10-16T15:04:55;3.40;;;1.40;;
21624;SDS011;10974;51.034;3.744;2022-10-16T15:07:21;3.57;;;1.30;;
21624;SDS011;10974;51.034;3.744;2022-10-16T15:09:47;2.70;;;1.33;;
21624;SDS011;10974;51.034;3.744;2022-10-16T15:12:13;4.77;;;1.57;;
21624;SDS011;10974;51.034;3.744;2022-10-16T15:14:39;4.40;;;1.60;;
21624;SDS011;10974;51.034;3.744;2022-10-16T15:17:05;2.00;;;1.23;;
21624;SDS011;10974;51.034;3.744;2022-10-16T15:19:30;1.40;;;1.27;;
21624;SDS011;10974;51.034;3.744;2022-10-16T15:21:56;2.33;;;1.63;;
21624;SDS011;10974;51.034;3.744;2022-10-16T15:24:22;2.40;;;1.40;;
21624;SDS011;10974;51.034;3.744;2022-10-16T15:26:47;3.00;;;1.50;;
21624;SDS011;10974;51.034;3.744;2022-10-16T15:29:14;2.20;;;1.43;;
21624;SDS011;10974;51.034;3.744;2022-10-16T15:31:40;2.53;;;1.60;;
21624;SDS011;10974;51.034;3.744;2022-10-16T15:34:08;2.40;;;1.50;;
21624;SDS011;10974;51.034;3.744;2022-10-16T15:36:35;3.83;;;2.00;;
21624;SDS011;10974;51.034;3.744;2022-10-16T15:39:03;2.10;;;1.23;;
21624;SDS011;10974;51.034;3.744;2022-10-16T15:41:30;3.43;;;1.63;;
21624;SDS011;10974;51.034;3.744;2022-10-16T15:43:55;3.07;;;1.60;;
21624;SDS011;10974;51.034;3.744;2022-10-16T15:46:22;2.13;;;1.57;;
21624;SDS011;10974;51.034;3.744;2022-10-16T15:48:49;2.63;;;1.70;;
21624;SDS011;10974;51.034;3.744;2022-10-16T15:51:15;3.67;;;1.60;;
21624;SDS011;10974;51.034;3.744;2022-10-16T15:53:42;2.60;;;1.53;;
21624;SDS011;10974;51.034;3.744;2022-10-16T15:56:09;2.70;;;1.70;;
21624;SDS011;10974;51.034;3.744;2022-10-16T15:58:36;4.40;;;1.60;;
21624;SDS011;10974;51.034;3.744;2022-10-16T16:01:02;4.03;;;1.70;;
21624;SDS011;10974;51.034;3.744;2022-10-16T16:03:29;2.30;;;1.60;;
21624;SDS011;10974;51.034;3.744;2022-10-16T16:05:55;1.67;;;1.40;;
21624;SDS011;10974;51.034;3.744;2022-10-16T16:08:21;5.67;;;2.00;;
21624;SDS011;10974;51.034;3.744;2022-10-16T16:10:57;8.30;;;1.93;;
21624;SDS011;10974;51.034;3.744;2022-10-16T16:13:33;13.90;;;2.30;;
21624;SDS011;10974;51.034;3.744;2022-10-16T16:15:59;6.83;;;2.00;;
21624;SDS011;10974;51.034;3.744;2022-10-16T16:18:24;6.83;;;1.40;;
21624;SDS011;10974;51.034;3.744;2022-10-16T16:20:51;12.73;;;1.90;;
21624;SDS011;10974;51.034;3.744;2022-10-16T16:23:17;3.53;;;1.53;;
21624;SDS011;10974;51.034;3.744;2022-10-16T16:25:44;5.27;;;1.53;;
21624;SDS011;10974;51.034;3.744;2022-10-16T16:28:09;2.40;;;1.37;;
21624;SDS011;10974;51.034;3.744;2022-10-16T16:30:39;4.83;;;1.50;;
21624;SDS011;10974;51.034;3.744;2022-10-16T16:33:05;1.50;;;1.30;;
21624;SDS011;10974;51.034;3.744;2022-10-16T16:35:31;2.40;;;1.03;;
21624;SDS011;10974;51.034;3.744;2022-10-16T16:37:56;2.30;;;1.10;;
21624;SDS011;10974;51.034;3.744;2022-10-16T16:40:22;1.27;;;0.90;;
21624;SDS011;10974;51.034;3.744;2022-10-16T16:42:48;0.83;;;0.80;;
21624;SDS011;10974;51.034;3.744;2022-10-16T16:45:14;1.37;;;1.10;;
21624;SDS011;10974;51.034;3.744;2022-10-16T16:47:40;1.13;;;1.00;;
21624;SDS011;10974;51.034;3.744;2022-10-16T16:50:06;1.60;;;1.10;;
21624;SDS011;10974;51.034;3.744;2022-10-16T16:52:32;1.43;;;1.17;;
21624;SDS011;10974;51.034;3.744;2022-10-16T16:54:59;3.83;;;1.70;;
21624;SDS011;10974;51.034;3.744;2022-10-16T16:57:24;4.80;;;2.00;;
21624;SDS011;10974;51.034;3.744;2022-10-16T16:59:50;3.43;;;1.97;;
21624;SDS011;10974;51.034;3.744;2022-10-16T17:02:16;5.60;;;1.73;;
21624;SDS011;10974;51.034;3.744;2022-10-16T17:04:42;3.90;;;2.23;;
21624;SDS011;10974;51.034;3.744;2022-10-16T17:07:08;4.37;;;1.93;;
21624;SDS011;10974;51.034;3.744;2022-10-16T17:09:34;3.53;;;1.80;;
21624;SDS011;10974;51.034;3.744;2022-10-16T17:12:00;1.67;;;1.57;;
21624;SDS011;10974;51.034;3.744;2022-10-16T17:14:25;2.40;;;2.00;;
21624;SDS011;10974;51.034;3.744;2022-10-16T17:16:51;2.33;;;1.40;;
21624;SDS011;10974;51.034;3.744;2022-10-16T17:19:18;2.40;;;1.63;;
21624;SDS011;10974;51.034;3.744;2022-10-16T17:21:46;1.73;;;1.63;;
21624;SDS011;10974;51.034;3.744;2022-10-16T17:24:13;5.43;;;1.70;;
21624;SDS011;10974;51.034;3.744;2022-10-16T17:26:39;2.70;;;2.13;;
21624;SDS011;10974;51.034;3.744;2022-10-16T17:29:09;2.87;;;2.03;;
21624;SDS011;10974;51.034;3.744;2022-10-16T17:31:36;2.30;;;2.10;;
21624;SDS011;10974;51.034;3.744;2022-10-16T17:34:03;3.80;;;2.40;;
21624;SDS011;10974;51.034;3.744;2022-10-16T17:36:31;3.30;;;2.33;;
21624;SDS011;10974;51.034;3.744;2022-10-16T17:38:59;5.63;;;2.80;;
21624;SDS011;10974;51.034;3.744;2022-10-16T17:41:29;3.00;;;2.13;;
21624;SDS011;10974;51.034;3.744;2022-10-16T17:43:55;5.30;;;2.43;;
21624;SDS011;10974;51.034;3.744;2022-10-16T17:46:21;4.33;;;2.70;;
21624;SDS011;10974;51.034;3.744;2022-10-16T17:48:49;6.60;;;3.13;;
21624;SDS011;10974;51.034;3.744;2022-10-16T17:51:19;2.50;;;2.13;;
21624;SDS011;10974;51.034;3.744;2022-10-16T17:53:55;3.80;;;3.07;;
21624;SDS011;10974;51.034;3.744;2022-10-16T17:56:23;3.37;;;2.80;;
21624;SDS011;10974;51.034;3.744;2022-10-16T17:58:50;2.90;;;2.60;;
21624;SDS011;10974;51.034;3.744;2022-10-16T18:01:19;2.73;;;2.30;;
21624;SDS011;10974;51.034;3.744;2022-10-16T18:03:55;2.70;;;2.17;;
21624;SDS011;10974;51.034;3.744;2022-10-16T18:06:33;3.33;;;3.00;;
21624;SDS011;10974;51.034;3.744;2022-10-16T18:08:59;2.30;;;2.10;;
21624;SDS011;10974;51.034;3.744;2022-10-16T18:11:26;3.33;;;2.17;;
21624;SDS011;10974;51.034;3.744;2022-10-16T18:13:51;3.13;;;2.27;;
21624;SDS011;10974;51.034;3.744;2022-10-16T18:16:22;2.30;;;1.83;;
21624;SDS011;10974;51.034;3.744;2022-10-16T18:18:49;2.50;;;2.10;;
21624;SDS011;10974;51.034;3.744;2022-10-16T18:21:15;2.17;;;1.97;;
21624;SDS011;10974;51.034;3.744;2022-10-16T18:23:42;2.90;;;1.90;;
21624;SDS011;10974;51.034;3.744;2022-10-16T18:26:09;3.87;;;2.37;;
21624;SDS011;10974;51.034;3.744;2022-10-16T18:28:36;2.47;;;2.27;;
21624;SDS011;10974;51.034;3.744;2022-10-16T18:31:03;1.87;;;1.70;;
21624;SDS011;10974;51.034;3.744;2022-10-16T18:33:31;2.40;;;2.20;;
21624;SDS011;10974;51.034;3.744;2022-10-16T18:36:00;4.33;;;2.80;;
21624;SDS011;10974;51.034;3.744;2022-10-16T18:38:34;4.23;;;2.40;;
21624;SDS011;10974;51.034;3.744;2022-10-16T18:41:00;3.30;;;2.60;;
21624;SDS011;10974;51.034;3.744;2022-10-16T18:43:26;2.10;;;1.90;;
21624;SDS011;10974;51.034;3.744;2022-10-16T18:45:59;3.67;;;2.50;;
21624;SDS011;10974;51.034;3.744;2022-10-16T18:48:30;2.40;;;2.20;;
21624;SDS011;10974;51.034;3.744;2022-10-16T18:53:56;3.30;;;2.37;;
21624;SDS011;10974;51.034;3.744;2022-10-16T18:56:25;3.67;;;2.80;;
21624;SDS011;10974;51.034;3.744;2022-10-16T18:58:52;4.00;;;2.73;;
21624;SDS011;10974;51.034;3.744;2022-10-16T19:01:22;3.60;;;2.80;;
21624;SDS011;10974;51.034;3.744;2022-10-16T19:03:51;3.40;;;2.73;;
21624;SDS011;10974;51.034;3.744;2022-10-16T19:06:19;4.10;;;2.47;;
21624;SDS011;10974;51.034;3.744;2022-10-16T19:08:45;4.13;;;2.53;;
21624;SDS011;10974;51.034;3.744;2022-10-16T19:11:14;4.73;;;2.60;;
21624;SDS011;10974;51.034;3.744;2022-10-16T19:13:42;4.47;;;2.50;;
21624;SDS011;10974;51.034;3.744;2022-10-16T19:16:10;3.00;;;2.60;;
21624;SDS011;10974;51.034;3.744;2022-10-16T19:18:37;3.40;;;2.67;;
21624;SDS011;10974;51.034;3.744;2022-10-16T19:21:06;2.70;;;2.40;;
21624;SDS011;10974;51.034;3.744;2022-10-16T19:23:36;4.00;;;3.13;;
21624;SDS011;10974;51.034;3.744;2022-10-16T19:26:06;4.50;;;2.67;;
21624;SDS011;10974;51.034;3.744;2022-10-16T19:28:34;2.77;;;2.47;;
21624;SDS011;10974;51.034;3.744;2022-10-16T19:31:04;3.57;;;2.80;;
21624;SDS011;10974;51.034;3.744;2022-10-16T19:33:32;2.73;;;2.10;;
21624;SDS011;10974;51.034;3.744;2022-10-16T19:38:32;3.63;;;2.80;;
21624;SDS011;10974;51.034;3.744;2022-10-16T19:41:11;6.00;;;2.23;;
21624;SDS011;10974;51.034;3.744;2022-10-16T19:43:38;3.27;;;2.40;;
21624;SDS011;10974;51.034;3.744;2022-10-16T19:46:05;3.20;;;2.70;;
21624;SDS011;10974;51.034;3.744;2022-10-16T19:48:32;3.70;;;3.00;;
21624;SDS011;10974;51.034;3.744;2022-10-16T19:50:58;2.50;;;2.30;;
21624;SDS011;10974;51.034;3.744;2022-10-16T19:53:24;3.37;;;2.60;;
21624;SDS011;10974;51.034;3.744;2022-10-16T19:55:52;3.47;;;2.40;;
21624;SDS011;10974;51.034;3.744;2022-10-16T19:58:19;2.53;;;2.23;;
21624;SDS011;10974;51.034;3.744;2022-10-16T20:00:44;2.90;;;2.60;;
21624;SDS011;10974;51.034;3.744;2022-10-16T20:03:10;3.17;;;2.37;;
21624;SDS011;10974;51.034;3.744;2022-10-16T20:05:36;3.17;;;2.30;;
21624;SDS011;10974;51.034;3.744;2022-10-16T20:08:01;3.03;;;2.13;;
21624;SDS011;10974;51.034;3.744;2022-10-16T20:10:27;3.47;;;2.10;;
21624;SDS011;10974;51.034;3.744;2022-10-16T20:12:53;3.70;;;2.03;;
21624;SDS011;10974;51.034;3.744;2022-10-16T20:15:19;2.30;;;2.10;;
21624;SDS011;10974;51.034;3.744;2022-10-16T20:17:45;1.77;;;1.63;;
21624;SDS011;10974;51.034;3.744;2022-10-16T20:20:10;2.53;;;2.20;;
21624;SDS011;10974;51.034;3.744;2022-10-16T20:22:36;4.50;;;2.53;;
21624;SDS011;10974;51.034;3.744;2022-10-16T20:25:02;2.83;;;2.53;;
21624;SDS011;10974;51.034;3.744;2022-10-16T20:27:28;3.30;;;2.40;;
21624;SDS011;10974;51.034;3.744;2022-10-16T20:29:55;2.90;;;2.47;;
21624;SDS011;10974;51.034;3.744;2022-10-16T20:32:21;3.67;;;2.43;;
21624;SDS011;10974;51.034;3.744;2022-10-16T20:34:46;3.93;;;2.90;;
21624;SDS011;10974;51.034;3.744;2022-10-16T20:37:14;2.80;;;2.50;;
21624;SDS011;10974;51.034;3.744;2022-10-16T20:39:40;3.73;;;3.30;;
21624;SDS011;10974;51.034;3.744;2022-10-16T20:42:05;4.20;;;3.30;;
21624;SDS011;10974;51.034;3.744;2022-10-16T20:44:32;4.03;;;3.40;;
21624;SDS011;10974;51.034;3.744;2022-10-16T20:46:58;6.23;;;3.33;;
21624;SDS011;10974;51.034;3.744;2022-10-16T20:49:24;3.90;;;3.33;;
21624;SDS011;10974;51.034;3.744;2022-10-16T20:51:50;4.10;;;2.83;;